createdAt,value
2023-07-04T00:01:21.851Z,94111.00
2023-07-04T00:03:55.522Z,94109.00
2023-07-04T00:06:26.732Z,94109.00
2023-07-04T00:08:54.179Z,94113.00
2023-07-04T00:11:24.549Z,94108.00
2023-07-04T00:13:52.210Z,94097.00
2023-07-04T00:16:20.154Z,94090.00
2023-07-04T00:18:49.433Z,94098.00
2023-07-04T00:21:21.496Z,94087.00
2023-07-04T00:23:54.570Z,94088.00
2023-07-04T00:26:24.741Z,94100.00
2023-07-04T00:28:57.198Z,94092.00
2023-07-04T00:31:27.510Z,94093.00
2023-07-04T00:33:55.419Z,94094.00
2023-07-04T00:36:22.948Z,94104.00
2023-07-04T00:38:58.294Z,94100.00
2023-07-04T00:41:30.480Z,94103.00
2023-07-04T00:44:08.784Z,94109.00
2023-07-04T00:47:05.926Z,94108.00
2023-07-04T00:49:44.235Z,94109.00
2023-07-04T00:52:15.501Z,94110.00
2023-07-04T00:54:49.182Z,94104.00
2023-07-04T00:57:20.964Z,94108.00
2023-07-04T00:59:58.943Z,94116.00
2023-07-04T01:02:32.418Z,94114.00
2023-07-04T01:05:01.434Z,94118.00
2023-07-04T01:07:47.471Z,94117.00
2023-07-04T01:10:36.466Z,94118.00
2023-07-04T01:13:03.671Z,94123.00
2023-07-04T01:15:31.676Z,94123.00
2023-07-04T01:18:02.572Z,94122.00
2023-07-04T01:20:29.962Z,94120.00
2023-07-04T01:23:34.617Z,94123.00
2023-07-04T01:26:39.027Z,94121.00
2023-07-04T01:29:12.096Z,94115.00
2023-07-04T01:31:47.716Z,94110.00
2023-07-04T01:34:18.365Z,94111.00
2023-07-04T01:36:48.535Z,94112.00
2023-07-04T01:39:18.317Z,94108.00
2023-07-04T01:41:46.794Z,94102.00
2023-07-04T01:44:17.987Z,94098.00
2023-07-04T01:46:45.678Z,94100.00
2023-07-04T01:49:13.880Z,94097.00
2023-07-04T01:51:42.783Z,94105.00
2023-07-04T01:54:20.019Z,94113.00
2023-07-04T01:56:57.885Z,94116.00
2023-07-04T01:59:27.563Z,94114.00
2023-07-04T02:01:54.453Z,94113.00
2023-07-04T02:04:21.338Z,94111.00
2023-07-04T02:06:48.302Z,94111.00
2023-07-04T02:09:18.328Z,94111.00
2023-07-04T02:11:46.910Z,94109.00
2023-07-04T02:14:14.855Z,94106.00
2023-07-04T02:16:41.805Z,94115.00
2023-07-04T02:19:08.792Z,94111.00
2023-07-04T02:21:38.351Z,94115.00
2023-07-04T02:24:05.817Z,94120.00
2023-07-04T02:26:40.445Z,94125.00
2023-07-04T02:29:09.676Z,94129.00
2023-07-04T02:31:36.585Z,94127.00
2023-07-04T02:34:05.863Z,94119.00
2023-07-04T02:36:35.349Z,94118.00
2023-07-04T02:39:05.228Z,94117.00
2023-07-04T02:41:32.299Z,94126.00
2023-07-04T02:44:01.457Z,94124.00
2023-07-04T02:46:28.500Z,94133.00
2023-07-04T02:48:57.863Z,94132.00
2023-07-04T02:51:24.805Z,94110.00
2023-07-04T02:53:51.712Z,94136.00
2023-07-04T02:56:18.657Z,94142.00
2023-07-04T02:58:48.145Z,94127.00
2023-07-04T03:01:17.364Z,94125.00
2023-07-04T03:03:44.613Z,94128.00
2023-07-04T03:06:14.328Z,94131.00
2023-07-04T03:08:41.299Z,94132.00
2023-07-04T03:11:10.294Z,94129.00
2023-07-04T03:13:37.288Z,94130.00
2023-07-04T03:16:04.459Z,94135.00
2023-07-04T03:18:33.867Z,94134.00
2023-07-04T03:21:05.358Z,94135.00
2023-07-04T03:23:32.300Z,94137.00
2023-07-04T03:26:01.320Z,94137.00
2023-07-04T03:28:30.267Z,94127.00
2023-07-04T03:30:58.217Z,94122.00
2023-07-04T03:33:27.441Z,94126.00
2023-07-04T03:35:59.356Z,94126.00
2023-07-04T03:38:27.539Z,94127.00
2023-07-04T03:40:54.792Z,94129.00
2023-07-04T03:43:23.603Z,94133.00
2023-07-04T03:45:50.503Z,94130.00
2023-07-04T03:48:17.648Z,94134.00
2023-07-04T03:50:45.431Z,94138.00
2023-07-04T03:53:12.394Z,94142.00
2023-07-04T03:55:39.442Z,94145.00
2023-07-04T03:58:11.447Z,94146.00
2023-07-04T04:00:38.372Z,94142.00
2023-07-04T04:03:07.634Z,94130.00
2023-07-04T04:05:39.906Z,94132.00
2023-07-04T04:08:06.853Z,94139.00
2023-07-04T04:10:33.810Z,94134.00
2023-07-04T04:13:03.771Z,94136.00
2023-07-04T04:15:33.051Z,94138.00
2023-07-04T04:18:00.059Z,94136.00
2023-07-04T04:20:31.738Z,94140.00
2023-07-04T04:23:01.562Z,94137.00
2023-07-04T04:25:28.533Z,94133.00
2023-07-04T04:27:57.923Z,94142.00
2023-07-04T04:30:27.400Z,94138.00
2023-07-04T04:32:56.623Z,94146.00
2023-07-04T04:35:23.656Z,94138.00
2023-07-04T04:37:50.541Z,94138.00
2023-07-04T04:40:20.022Z,94149.00
2023-07-04T04:42:48.214Z,94144.00
2023-07-04T04:45:15.365Z,94152.00
2023-07-04T04:47:54.169Z,94141.00
2023-07-04T04:50:26.660Z,94148.00
2023-07-04T04:52:53.906Z,94143.00
2023-07-04T04:55:23.443Z,94145.00
2023-07-04T04:57:51.113Z,94141.00
2023-07-04T05:00:18.976Z,94144.00
2023-07-04T05:02:49.200Z,94144.00
2023-07-04T05:05:17.741Z,94137.00
2023-07-04T05:07:47.076Z,94142.00
2023-07-04T05:10:14.108Z,94143.00
2023-07-04T05:12:43.594Z,94134.00
2023-07-04T05:15:10.580Z,94142.00
2023-07-04T05:17:42.128Z,94145.00
2023-07-04T05:20:14.542Z,94141.00
2023-07-04T05:22:43.408Z,94134.00
2023-07-04T05:25:11.935Z,94141.00
2023-07-04T05:27:38.892Z,94141.00
2023-07-04T05:30:11.271Z,94142.00
2023-07-04T05:32:38.225Z,94147.00
2023-07-04T05:35:05.882Z,94148.00
2023-07-04T05:37:34.942Z,94159.00
2023-07-04T05:40:01.949Z,94157.00
2023-07-04T05:42:30.317Z,94150.00
2023-07-04T05:44:59.611Z,94153.00
2023-07-04T05:47:26.541Z,94155.00
2023-07-04T05:49:55.603Z,94162.00
2023-07-04T05:52:22.531Z,94160.00
2023-07-04T05:54:49.654Z,94158.00
2023-07-04T05:57:16.514Z,94162.00
2023-07-04T05:59:45.507Z,94162.00
2023-07-04T06:02:12.506Z,94160.00
2023-07-04T06:04:39.679Z,94163.00
2023-07-04T06:07:11.340Z,94163.00
2023-07-04T06:09:38.303Z,94166.00
2023-07-04T06:12:08.391Z,94163.00
2023-07-04T06:14:40.619Z,94165.00
2023-07-04T06:17:09.695Z,94168.00
2023-07-04T06:19:38.979Z,94156.00
2023-07-04T06:22:08.354Z,94163.00
2023-07-04T06:24:37.452Z,94163.00
2023-07-04T06:27:09.067Z,94165.00
2023-07-04T06:29:35.986Z,94164.00
2023-07-04T06:32:05.705Z,94158.00
2023-07-04T06:34:33.130Z,94159.00
2023-07-04T06:37:02.544Z,94154.00
2023-07-04T06:39:31.699Z,94161.00
2023-07-04T06:41:58.612Z,94157.00
2023-07-04T06:44:27.746Z,94155.00
2023-07-04T06:46:57.339Z,94161.00
2023-07-04T06:49:24.641Z,94161.00
2023-07-04T06:51:54.000Z,94160.00
2023-07-04T06:54:20.989Z,94161.00
2023-07-04T06:56:47.886Z,94154.00
2023-07-04T06:59:16.904Z,94159.00
2023-07-04T07:01:46.129Z,94154.00
2023-07-04T07:04:17.236Z,94150.00
2023-07-04T07:06:44.098Z,94151.00
2023-07-04T07:09:11.102Z,94149.00
2023-07-04T07:11:38.037Z,94151.00
2023-07-04T07:14:06.494Z,94164.00
2023-07-04T07:16:34.184Z,94161.00
2023-07-04T07:19:01.137Z,94155.00
2023-07-04T07:21:28.179Z,94153.00
2023-07-04T07:23:57.885Z,94148.00
2023-07-04T07:26:27.008Z,94156.00
2023-07-04T07:28:55.567Z,94148.00
2023-07-04T07:31:32.945Z,94156.00
2023-07-04T07:34:04.217Z,94150.00
2023-07-04T07:36:42.650Z,94151.00
2023-07-04T07:39:17.713Z,94152.00
2023-07-04T07:41:48.808Z,94151.00
2023-07-04T07:44:19.146Z,94146.00
2023-07-04T07:46:46.299Z,94147.00
2023-07-04T07:49:16.400Z,94148.00
2023-07-04T07:51:44.559Z,94152.00
2023-07-04T07:54:12.043Z,94146.00
2023-07-04T07:56:44.195Z,94144.00
2023-07-04T07:59:12.481Z,94151.00
2023-07-04T08:01:42.289Z,94151.00
2023-07-04T08:04:14.549Z,94141.00
2023-07-04T08:06:47.736Z,94149.00
2023-07-04T08:09:21.315Z,94147.00
2023-07-04T08:11:52.935Z,94148.00
2023-07-04T08:14:20.786Z,94144.00
2023-07-04T08:16:54.921Z,94145.00
2023-07-04T08:19:24.794Z,94149.00
2023-07-04T08:21:52.628Z,94150.00
2023-07-04T08:24:22.093Z,94147.00
2023-07-04T08:26:49.138Z,94149.00
2023-07-04T08:29:16.868Z,94146.00
2023-07-04T08:31:43.887Z,94142.00
2023-07-04T08:34:11.556Z,94149.00
2023-07-04T08:36:41.291Z,94146.00
2023-07-04T08:39:11.851Z,94151.00
2023-07-04T08:41:47.014Z,94148.00
2023-07-04T08:44:22.597Z,94152.00
2023-07-04T08:46:55.294Z,94151.00
2023-07-04T08:50:03.917Z,94150.00
2023-07-04T08:52:38.042Z,94143.00
2023-07-04T08:55:12.858Z,94144.00
2023-07-04T08:57:42.853Z,94142.00
2023-07-04T09:00:38.643Z,94149.00
2023-07-04T09:03:44.995Z,94154.00
2023-07-04T09:07:07.091Z,94158.00
2023-07-04T09:10:08.736Z,94149.00
2023-07-04T09:12:38.872Z,94146.00
2023-07-04T09:15:41.800Z,94145.00
2023-07-04T09:18:26.764Z,94146.00
2023-07-04T09:21:15.832Z,94144.00
2023-07-04T09:23:45.138Z,94150.00
2023-07-04T09:26:17.814Z,94148.00
2023-07-04T09:28:48.151Z,94146.00
2023-07-04T09:31:32.911Z,94142.00
2023-07-04T09:34:07.339Z,94145.00
2023-07-04T09:36:42.284Z,94144.00
2023-07-04T09:39:12.018Z,94136.00
2023-07-04T09:42:07.745Z,94145.00
2023-07-04T09:44:31.466Z,94136.00
2023-07-04T09:47:01.405Z,94145.00
2023-07-04T09:49:37.342Z,94135.00
2023-07-04T09:52:19.635Z,94134.00
2023-07-04T09:55:08.718Z,94134.00
2023-07-04T09:57:36.101Z,94131.00
2023-07-04T10:00:24.529Z,94131.00
2023-07-04T10:02:57.400Z,94128.00
2023-07-04T10:05:36.293Z,94133.00
2023-07-04T10:08:11.247Z,94130.00
2023-07-04T10:10:54.515Z,94130.00
2023-07-04T10:13:35.777Z,94133.00
2023-07-04T10:16:02.739Z,94131.00
2023-07-04T10:18:33.506Z,94129.00
2023-07-04T10:21:04.666Z,94128.00
2023-07-04T10:23:33.119Z,94124.00
2023-07-04T10:26:02.220Z,94125.00
2023-07-04T10:28:31.002Z,94129.00
2023-07-04T10:31:13.738Z,94139.00
2023-07-04T10:33:49.695Z,94131.00
2023-07-04T10:36:33.336Z,94132.00
2023-07-04T10:39:13.258Z,94124.00
2023-07-04T10:42:05.564Z,94123.00
2023-07-04T10:44:38.292Z,94133.00
2023-07-04T10:47:23.660Z,94133.00
2023-07-04T10:49:58.376Z,94129.00
2023-07-04T10:52:34.466Z,94135.00
2023-07-04T10:55:03.983Z,94131.00
2023-07-04T10:57:49.851Z,94127.00
2023-07-04T11:00:25.731Z,94124.00
2023-07-04T11:03:01.289Z,94133.00
2023-07-04T11:05:46.284Z,94129.00
2023-07-04T11:08:23.494Z,94131.00
2023-07-04T11:11:14.083Z,94124.00
2023-07-04T11:13:57.610Z,94119.00
2023-07-04T11:16:30.470Z,94122.00
2023-07-04T11:19:10.785Z,94112.00
2023-07-04T11:22:01.489Z,94115.00
2023-07-04T11:24:55.309Z,94115.00
2023-07-04T11:27:31.778Z,94117.00
2023-07-04T11:30:07.156Z,94109.00
2023-07-04T11:32:40.836Z,94113.00
2023-07-04T11:35:11.146Z,94118.00
2023-07-04T11:37:52.717Z,94113.00
2023-07-04T11:40:33.253Z,94118.00
2023-07-04T11:43:05.915Z,94105.00
2023-07-04T11:45:34.067Z,94100.00
2023-07-04T11:48:14.821Z,94096.00
2023-07-04T11:50:49.768Z,94091.00
2023-07-04T11:53:23.225Z,94084.00
2023-07-04T11:56:27.793Z,94075.00
2023-07-04T11:59:15.543Z,94086.00
2023-07-04T12:02:13.824Z,94079.00
2023-07-04T12:04:40.746Z,94084.00
2023-07-04T12:07:54.627Z,94063.00
2023-07-04T12:10:21.893Z,94076.00
2023-07-04T12:13:03.974Z,94058.00
2023-07-04T12:15:35.967Z,94057.00
2023-07-04T12:18:22.007Z,94058.00
2023-07-04T12:20:48.901Z,94057.00
2023-07-04T12:23:16.577Z,94055.00
2023-07-04T12:25:47.281Z,94048.00
2023-07-04T12:28:19.097Z,94053.00
2023-07-04T12:30:54.600Z,94043.00
2023-07-04T12:33:32.277Z,94040.00
2023-07-04T12:36:10.876Z,94036.00
2023-07-04T12:38:51.927Z,94041.00
2023-07-04T12:41:21.730Z,94032.00
2023-07-04T12:54:10.978Z,94018.00
2023-07-04T12:56:43.828Z,94012.00
2023-07-04T12:59:37.750Z,94021.00
2023-07-04T13:02:23.901Z,94017.00
2023-07-04T13:04:57.522Z,94012.00
2023-07-04T13:07:25.999Z,94017.00
2023-07-04T13:09:57.053Z,94006.00
2023-07-04T13:12:27.509Z,94016.00
2023-07-04T13:15:09.619Z,94010.00
2023-07-04T13:17:36.649Z,93993.00
2023-07-04T13:20:18.092Z,94011.00
2023-07-04T13:25:44.661Z,94014.00
2023-07-04T13:33:00.105Z,94016.00
2023-07-04T13:33:42.218Z,94009.00
2023-07-04T13:36:20.608Z,94006.00
2023-07-04T13:41:30.330Z,94002.00
2023-07-04T13:46:27.400Z,94006.00
2023-07-04T13:48:56.605Z,94003.00
2023-07-04T13:51:26.602Z,93999.00
2023-07-04T13:53:58.898Z,94006.00
2023-07-04T13:56:26.267Z,93997.00
2023-07-04T13:58:54.486Z,93994.00
2023-07-04T14:06:24.588Z,93996.00
2023-07-04T14:08:54.228Z,93990.00
2023-07-04T14:11:24.423Z,93992.00
2023-07-04T14:13:59.743Z,93993.00
2023-07-04T14:19:58.867Z,93987.00
2023-07-04T14:21:52.220Z,93988.00
2023-07-04T14:24:21.393Z,93976.00
2023-07-04T14:26:48.278Z,93969.00
2023-07-04T14:29:15.165Z,93961.00
2023-07-04T14:31:42.248Z,93961.00
2023-07-04T14:34:09.217Z,93959.00
2023-07-04T14:36:37.612Z,93953.00
2023-07-04T14:39:05.120Z,93957.00
2023-07-04T14:44:06.138Z,93954.00
2023-07-04T14:46:33.483Z,93954.00
2023-07-04T14:49:00.442Z,93944.00
2023-07-04T14:51:27.365Z,93938.00
2023-07-04T14:53:58.987Z,93935.00
2023-07-04T14:56:33.136Z,93934.00
2023-07-04T14:59:06.256Z,93927.00
2023-07-04T15:01:33.282Z,93926.00
2023-07-04T15:04:00.431Z,93933.00
2023-07-04T15:06:29.393Z,93932.00
2023-07-04T15:08:58.676Z,93920.00
2023-07-04T15:11:25.781Z,93910.00
2023-07-04T15:13:52.679Z,93922.00
2023-07-04T15:16:22.064Z,93920.00
2023-07-04T15:18:53.720Z,93921.00
2023-07-04T15:21:20.644Z,93924.00
2023-07-04T15:23:47.605Z,93912.00
2023-07-04T15:26:26.284Z,93912.00
2023-07-04T15:28:56.567Z,93908.00
2023-07-04T15:31:24.253Z,93919.00
2023-07-04T15:33:52.804Z,93909.00
2023-07-04T15:36:20.787Z,93908.00
2023-07-04T15:38:50.013Z,93914.00
2023-07-04T15:41:22.641Z,93909.00
2023-07-04T15:43:50.625Z,93913.00
2023-07-04T15:46:17.789Z,93909.00
2023-07-04T15:48:45.604Z,93901.00
2023-07-04T15:51:22.461Z,93903.00
2023-07-04T15:53:56.459Z,93897.00
2023-07-04T15:56:23.707Z,93895.00
2023-07-04T15:58:51.160Z,93896.00
2023-07-04T16:01:18.270Z,93904.00
2023-07-04T16:03:48.003Z,93905.00
2023-07-04T16:06:17.498Z,93902.00
2023-07-04T16:08:45.108Z,93906.00
2023-07-04T16:11:14.591Z,93904.00
2023-07-04T16:13:44.492Z,93906.00
2023-07-04T16:16:14.147Z,93908.00
2023-07-04T16:18:41.127Z,93899.00
2023-07-04T16:21:11.577Z,93901.00
2023-07-04T16:23:38.775Z,93905.00
2023-07-04T16:26:07.907Z,93903.00
2023-07-04T16:28:40.393Z,93908.00
2023-07-04T16:31:09.836Z,93906.00
2023-07-04T16:33:36.910Z,93919.00
2023-07-04T16:36:07.101Z,93906.00
2023-07-04T16:38:34.530Z,93922.00
2023-07-04T16:41:07.838Z,93913.00
2023-07-04T16:43:34.926Z,93925.00
2023-07-04T16:46:04.178Z,93914.00
2023-07-04T16:48:36.252Z,93912.00
2023-07-04T16:51:03.271Z,93927.00
2023-07-04T16:53:33.147Z,93934.00
2023-07-04T16:56:04.014Z,93929.00
2023-07-04T16:58:34.277Z,93928.00
2023-07-04T17:01:03.510Z,93926.00
2023-07-04T17:03:33.766Z,93913.00
2023-07-04T17:06:09.656Z,93924.00
2023-07-04T17:08:38.212Z,93928.00
2023-07-04T17:11:09.594Z,93924.00
2023-07-04T17:13:39.553Z,93919.00
2023-07-04T17:16:12.761Z,93923.00
2023-07-04T17:18:42.009Z,93930.00
2023-07-04T17:21:09.781Z,93923.00
2023-07-04T17:23:37.029Z,93921.00
2023-07-04T17:26:06.870Z,93916.00
2023-07-04T17:28:36.650Z,93923.00
2023-07-04T17:31:06.957Z,93921.00
2023-07-04T17:33:34.325Z,93924.00
2023-07-04T17:36:16.142Z,93923.00
2023-07-04T17:38:43.850Z,93921.00
2023-07-04T17:41:14.092Z,93923.00
2023-07-04T17:43:43.730Z,93910.00
2023-07-04T17:46:13.245Z,93922.00
2023-07-04T17:48:42.503Z,93924.00
2023-07-04T17:51:13.216Z,93926.00
2023-07-04T17:53:40.314Z,93927.00
2023-07-04T17:56:11.952Z,93930.00
2023-07-04T17:58:40.820Z,93928.00
2023-07-04T18:01:20.269Z,93930.00
2023-07-04T18:03:52.198Z,93933.00
2023-07-04T18:06:24.231Z,93939.00
2023-07-04T18:08:51.757Z,93939.00
2023-07-04T18:11:25.332Z,93936.00
2023-07-04T18:13:56.025Z,93943.00
2023-07-04T18:16:23.507Z,93943.00
2023-07-04T18:18:53.610Z,93940.00
2023-07-04T18:21:25.990Z,93942.00
2023-07-04T18:23:59.470Z,93950.00
2023-07-04T18:26:33.537Z,93939.00
2023-07-04T18:29:06.485Z,93949.00
2023-07-04T18:31:33.539Z,93939.00
2023-07-04T18:34:01.825Z,93943.00
2023-07-04T18:36:33.751Z,93940.00
2023-07-04T18:39:01.016Z,93938.00
2023-07-04T18:41:38.640Z,93940.00
2023-07-04T18:44:07.487Z,93929.00
2023-07-04T18:46:36.961Z,93930.00
2023-07-04T18:49:05.175Z,93935.00
2023-07-04T18:51:35.843Z,93933.00
2023-07-04T18:54:05.720Z,93931.00
2023-07-04T18:56:38.463Z,93938.00
2023-07-04T18:59:05.815Z,93930.00
2023-07-04T19:01:33.194Z,93934.00
2023-07-04T19:04:03.704Z,93934.00
2023-07-04T19:06:35.360Z,93934.00
2023-07-04T19:09:03.643Z,93937.00
2023-07-04T19:11:35.947Z,93934.00
2023-07-04T19:14:18.841Z,93940.00
2023-07-04T19:16:55.611Z,93937.00
2023-07-04T19:19:45.115Z,93940.00
2023-07-04T19:22:12.285Z,93946.00
2023-07-04T19:24:43.379Z,93948.00
2023-07-04T19:27:15.620Z,93947.00
2023-07-04T19:29:44.193Z,93942.00
2023-07-04T19:32:14.425Z,93949.00
2023-07-04T19:34:42.209Z,93949.00
2023-07-04T19:37:10.232Z,93953.00
2023-07-04T19:39:38.940Z,93954.00
2023-07-04T19:42:06.715Z,93962.00
2023-07-04T19:44:36.337Z,93960.00
2023-07-04T19:47:03.829Z,93961.00
2023-07-04T19:49:31.628Z,93971.00
2023-07-04T19:52:01.431Z,93969.00
2023-07-04T19:54:29.453Z,93969.00
2023-07-04T19:56:57.487Z,93972.00
2023-07-04T19:59:25.520Z,93968.00
2023-07-04T20:01:55.194Z,93970.00
2023-07-04T20:04:22.529Z,93972.00
2023-07-04T20:06:52.035Z,93979.00
2023-07-04T20:09:21.392Z,93970.00
2023-07-04T20:11:48.366Z,93963.00
2023-07-04T20:14:15.322Z,93970.00
2023-07-04T20:16:44.483Z,93970.00
2023-07-04T20:19:13.795Z,93967.00
2023-07-04T20:21:40.869Z,93968.00
2023-07-04T20:24:08.498Z,93970.00
2023-07-04T20:26:35.454Z,93976.00
2023-07-04T20:29:02.455Z,93982.00
2023-07-04T20:31:34.349Z,93983.00
2023-07-04T20:34:03.331Z,93987.00
2023-07-04T20:36:30.391Z,93975.00
2023-07-04T20:38:57.558Z,93969.00
2023-07-04T20:41:24.882Z,93970.00
2023-07-04T20:43:52.073Z,93974.00
2023-07-04T20:46:19.137Z,93973.00
2023-07-04T20:48:50.578Z,93971.00
2023-07-04T20:51:18.900Z,93957.00
2023-07-04T20:53:48.906Z,93965.00
2023-07-04T20:56:16.247Z,93960.00
2023-07-04T20:58:43.381Z,93967.00
2023-07-04T21:01:10.682Z,93972.00
2023-07-04T21:03:37.759Z,93968.00
2023-07-04T21:06:06.590Z,93958.00
2023-07-04T21:08:34.510Z,93963.00
2023-07-04T21:11:04.967Z,93967.00
2023-07-04T21:13:38.753Z,93952.00
2023-07-04T21:16:11.200Z,93944.00
2023-07-04T21:18:42.388Z,93972.00
2023-07-04T21:21:10.124Z,93982.00
2023-07-04T21:23:39.685Z,93979.00
2023-07-04T21:26:10.512Z,93976.00
2023-07-04T21:28:40.624Z,93982.00
2023-07-04T21:31:13.688Z,93959.00
2023-07-04T21:33:41.867Z,93980.00
2023-07-04T21:36:12.539Z,93977.00
2023-07-04T21:38:40.917Z,93983.00
2023-07-04T21:41:10.525Z,93979.00
2023-07-04T21:43:40.134Z,93986.00
2023-07-04T21:46:09.417Z,93986.00
2023-07-04T21:48:37.061Z,93984.00
2023-07-04T21:51:09.539Z,93977.00
2023-07-04T21:53:36.925Z,93983.00
2023-07-04T21:56:04.072Z,93985.00
2023-07-04T21:58:34.436Z,93983.00
2023-07-04T22:01:03.731Z,93984.00
2023-07-04T22:03:32.738Z,93976.00
2023-07-04T22:06:11.458Z,93984.00
2023-07-04T22:08:44.302Z,93965.00
2023-07-04T22:11:14.585Z,93977.00
2023-07-04T22:13:47.302Z,93964.00
2023-07-04T22:16:19.290Z,93957.00
2023-07-04T22:18:48.402Z,93963.00
2023-07-04T22:21:18.959Z,93958.00
2023-07-04T22:23:48.364Z,93965.00
2023-07-04T22:26:15.828Z,93960.00
2023-07-04T22:28:47.965Z,93965.00
2023-07-04T22:31:17.432Z,93963.00
2023-07-04T22:34:00.108Z,93951.00
2023-07-04T22:36:32.561Z,93952.00
2023-07-04T22:39:04.989Z,93954.00
2023-07-04T22:41:32.724Z,93964.00
2023-07-04T22:44:00.266Z,93963.00
2023-07-04T22:46:32.500Z,93951.00
2023-07-04T22:49:00.017Z,93948.00
2023-07-04T22:51:27.017Z,93941.00
2023-07-04T22:53:54.569Z,93948.00
2023-07-04T22:56:22.050Z,93955.00
2023-07-04T22:58:49.110Z,93961.00
2023-07-04T23:01:22.028Z,93953.00
2023-07-04T23:03:49.608Z,93954.00
2023-07-04T23:06:17.736Z,93952.00
2023-07-04T23:08:45.561Z,93949.00
2023-07-04T23:11:13.924Z,93948.00
2023-07-04T23:13:41.323Z,93945.00
2023-07-04T23:16:20.489Z,93953.00
2023-07-04T23:18:51.918Z,93960.00
2023-07-04T23:21:19.400Z,93954.00
2023-07-04T23:23:48.865Z,93957.00
2023-07-04T23:26:22.048Z,93950.00
2023-07-04T23:28:49.028Z,93955.00
2023-07-04T23:31:16.431Z,93950.00
2023-07-04T23:33:48.073Z,93939.00
2023-07-04T23:36:17.512Z,93949.00
2023-07-04T23:38:50.038Z,93935.00
2023-07-04T23:41:18.609Z,93929.00
2023-07-04T23:43:46.487Z,93929.00
2023-07-04T23:46:16.322Z,93924.00
2023-07-04T23:48:45.767Z,93913.00
2023-07-04T23:51:12.725Z,93915.00
2023-07-04T23:53:39.689Z,93909.00
2023-07-04T23:56:06.743Z,93909.00
2023-07-04T23:58:33.783Z,93914.00
